Time;durP1;ratioP1;P1;durP2;ratioP2;P2;SDS_P1;SDS_P2;PMS_P1;PMS_P2;Temp;Humidity;BMP_temperature;BMP_pressure;BME280_temperature;BME280_humidity;BME280_pressure;Samples;Min_cycle;Max_cycle;Signal;HPM_P1;HPM_P2
2022/07/07 00:01:24;;;;;;;;;;;;;;;14.21;56.64;97123.19;5075121;28;20387;-71
2022/07/07 00:03:51;;;;;;;;;;;;;;;14.16;56.48;97120.44;5075128;28;19956;-71
2022/07/07 00:06:17;;;;;;;;;;;;;;;14.14;56.86;97123.28;5074940;28;19954;-71
2022/07/07 00:08:44;;;;;;;;;;;;;;;14.12;57.49;97127.97;5074796;28;19949;-71
2022/07/07 00:11:10;;;;;;;;;;;;;;;14.09;57.31;97109.97;5075355;28;19956;-71
2022/07/07 00:13:36;;;;;;;;;;;;;;;14.07;56.97;97121.75;5074715;28;19958;-71
2022/07/07 00:16:02;;;;;;;;;;;;;;;14.05;57.52;97121.16;5074782;28;20540;-71
2022/07/07 00:18:28;;;;;;;;;;;;;;;14.02;57.83;97122.41;5074889;28;19967;-71
2022/07/07 00:20:54;;;;;;;;;;;;;;;13.99;57.87;97122.88;5074565;28;20018;-71
2022/07/07 00:23:19;;;;;;;;;;;;;;;13.95;57.81;97119.06;5074665;28;19950;-71
2022/07/07 00:25:45;;;;;;;;;;;;;;;13.92;57.81;97119.50;5074865;28;19962;-71
2022/07/07 00:28:11;;;;;;;;;;;;;;;13.90;57.59;97121.56;5074371;28;19977;-71
2022/07/07 00:30:37;;;;;;;;;;;;;;;13.86;57.85;97113.31;5074726;28;20000;-71
2022/07/07 00:33:03;;;;;;;;;;;;;;;13.83;58.50;97116.38;5074515;28;19958;-71
2022/07/07 00:35:29;;;;;;;;;;;;;;;13.80;58.27;97124.75;5074109;28;19974;-71
2022/07/07 00:37:55;;;;;;;;;;;;;;;13.75;58.87;97119.31;5074217;28;19951;-71
2022/07/07 00:40:20;;;;;;;;;;;;;;;13.71;58.60;97124.25;5074336;28;19959;-71
2022/07/07 00:42:46;;;;;;;;;;;;;;;13.70;58.29;97122.63;5074532;28;20325;-70
2022/07/07 00:45:12;;;;;;;;;;;;;;;13.69;58.67;97122.81;5073684;28;19961;-70
2022/07/07 00:47:40;;;;;;;;;;;;;;;13.66;59.23;97120.66;5074193;28;19949;-70
2022/07/07 00:50:07;;;;;;;;;;;;;;;13.61;58.93;97118.69;5073948;28;19954;-70
2022/07/07 00:52:33;;;;;;;;;;;;;;;13.60;58.90;97122.31;5074681;28;19953;-70
2022/07/07 00:55:00;;;;;;;;;;;;;;;13.58;59.09;97105.94;5073856;28;19994;-70
2022/07/07 00:57:26;;;;;;;;;;;;;;;13.55;59.49;97107.19;5074096;28;20314;-71
2022/07/07 00:59:54;;;;;;;;;;;;;;;13.56;59.93;97110.59;5073964;28;20396;-70
2022/07/07 01:02:20;;;;;;;;;;;;;;;13.52;60.00;97101.53;5073811;28;20404;-71
2022/07/07 01:04:46;;;;;;;;;;;;;;;13.51;59.77;97105.22;5074046;28;19961;-70
2022/07/07 01:07:13;;;;;;;;;;;;;;;13.52;59.87;97105.00;5073775;28;19960;-70
2022/07/07 01:09:40;;;;;;;;;;;;;;;13.53;59.89;97097.88;5073979;28;20311;-70
2022/07/07 01:12:06;;;;;;;;;;;;;;;13.54;59.65;97092.41;5074005;28;19967;-70
2022/07/07 01:14:32;;;;;;;;;;;;;;;13.55;59.57;97088.72;5073707;28;19970;-70
2022/07/07 01:16:58;;;;;;;;;;;;;;;13.56;59.71;97081.63;5073043;28;20385;-70
2022/07/07 01:19:24;;;;;;;;;;;;;;;13.56;59.78;97079.78;5074059;28;20353;-70
2022/07/07 01:22:16;;;;;;;;;;;;;;;13.58;59.59;97076.94;5073719;28;20314;-70
2022/07/07 01:24:42;;;;;;;;;;;;;;;13.59;59.63;97074.09;5072165;28;19960;-71
2022/07/07 01:27:08;;;;;;;;;;;;;;;13.59;59.74;97073.28;5057891;28;19951;-70
2022/07/07 01:29:38;;;;;;;;;;;;;;;13.59;59.53;97073.28;5074158;28;20002;-71
2022/07/07 01:32:10;;;;;;;;;;;;;;;13.59;60.03;97082.00;5073490;28;19972;-71
2022/07/07 01:34:36;;;;;;;;;;;;;;;13.62;59.82;97086.00;5074262;28;19949;-70
2022/07/07 01:37:03;;;;;;;;;;;;;;;13.62;59.57;97079.94;5073461;28;20057;-70
2022/07/07 01:39:29;;;;;;;;;;;;;;;13.62;60.13;97082.56;5073550;28;19953;-70
2022/07/07 01:41:55;;;;;;;;;;;;;;;13.60;59.98;97073.03;5073338;28;19963;-71
2022/07/07 01:44:21;;;;;;;;;;;;;;;13.59;60.38;97071.44;5073682;28;20328;-71
2022/07/07 01:46:46;;;;;;;;;;;;;;;13.56;60.31;97063.97;5073591;28;19949;-71
2022/07/07 01:49:12;;;;;;;;;;;;;;;13.51;59.81;97066.47;5073606;28;20354;-70
2022/07/07 01:51:38;;;;;;;;;;;;;;;13.51;60.46;97069.13;5073470;28;20307;-70
2022/07/07 01:54:04;;;;;;;;;;;;;;;13.51;60.67;97068.31;5073474;28;19960;-70
2022/07/07 01:56:30;;;;;;;;;;;;;;;13.50;60.16;97059.63;5073315;28;20380;-71
2022/07/07 01:58:56;;;;;;;;;;;;;;;13.47;59.74;97057.41;5073661;28;20036;-71
2022/07/07 02:01:22;;;;;;;;;;;;;;;13.42;60.05;97056.44;5073232;28;19957;-71
2022/07/07 02:03:48;;;;;;;;;;;;;;;13.39;60.35;97055.84;5073690;28;20428;-70
2022/07/07 02:06:14;;;;;;;;;;;;;;;13.38;60.80;97058.75;5073194;28;20044;-70
2022/07/07 02:08:40;;;;;;;;;;;;;;;13.38;60.76;97070.06;5072067;28;19957;-70
2022/07/07 02:11:12;;;;;;;;;;;;;;;13.38;60.48;97054.28;5072036;28;20000;-71
2022/07/07 02:13:39;;;;;;;;;;;;;;;13.38;60.80;97061.38;5073303;28;20432;-71
2022/07/07 02:16:05;;;;;;;;;;;;;;;13.34;61.08;97066.25;5072896;28;19970;-71
2022/07/07 02:18:35;;;;;;;;;;;;;;;13.33;61.47;97062.03;5073016;28;19953;-71
2022/07/07 02:21:02;;;;;;;;;;;;;;;13.32;61.50;97068.31;5072945;28;19947;-70
2022/07/07 02:23:28;;;;;;;;;;;;;;;13.29;61.86;97065.31;5073222;28;19972;-70
2022/07/07 02:25:54;;;;;;;;;;;;;;;13.25;61.97;97069.38;5072996;28;20420;-70
2022/07/07 02:28:20;;;;;;;;;;;;;;;13.22;61.85;97068.00;5075132;28;19978;-71
2022/07/07 02:30:46;;;;;;;;;;;;;;;13.19;61.75;97060.53;5076878;28;19958;-70
2022/07/07 02:33:12;;;;;;;;;;;;;;;13.20;61.79;97057.66;5076681;28;19978;-70
2022/07/07 02:35:38;;;;;;;;;;;;;;;13.18;62.35;97059.72;5076692;28;19974;-70
2022/07/07 02:38:04;;;;;;;;;;;;;;;13.17;62.63;97062.59;5076615;28;20411;-71
2022/07/07 02:40:30;;;;;;;;;;;;;;;13.16;62.35;97058.31;5076701;28;19949;-71
2022/07/07 02:42:56;;;;;;;;;;;;;;;13.15;62.80;97051.47;5076645;28;19952;-71
2022/07/07 02:45:22;;;;;;;;;;;;;;;13.14;62.98;97055.91;5076444;28;19950;-71
2022/07/07 02:47:48;;;;;;;;;;;;;;;13.13;63.17;97050.88;5076987;28;19957;-70
2022/07/07 02:50:14;;;;;;;;;;;;;;;13.11;63.86;97059.00;5076517;28;20293;-71
2022/07/07 02:52:40;;;;;;;;;;;;;;;13.10;63.43;97052.13;5076540;28;20381;-70
2022/07/07 02:55:06;;;;;;;;;;;;;;;13.10;63.75;97061.84;5076386;28;19981;-70
2022/07/07 02:57:32;;;;;;;;;;;;;;;13.09;63.19;97055.78;5077002;28;19963;-71
2022/07/07 02:59:58;;;;;;;;;;;;;;;13.12;63.19;97054.53;5076171;28;20028;-70
2022/07/07 03:02:24;;;;;;;;;;;;;;;13.13;62.94;97045.63;5076721;28;19956;-70
2022/07/07 03:04:50;;;;;;;;;;;;;;;13.15;63.20;97054.91;5076231;28;20392;-71
2022/07/07 03:07:19;;;;;;;;;;;;;;;13.17;62.83;97052.84;5076273;28;19957;-71
2022/07/07 03:09:45;;;;;;;;;;;;;;;13.20;62.74;97052.41;5064976;28;20542;-71
2022/07/07 03:12:11;;;;;;;;;;;;;;;13.24;62.80;97046.69;5076031;28;19957;-71
2022/07/07 03:14:37;;;;;;;;;;;;;;;13.24;63.39;97050.13;5076657;28;19960;-71
2022/07/07 03:17:03;;;;;;;;;;;;;;;13.23;63.11;97045.91;5075836;28;19983;-71
2022/07/07 03:19:29;;;;;;;;;;;;;;;13.24;63.22;97047.50;5075903;28;19965;-71
2022/07/07 03:21:55;;;;;;;;;;;;;;;13.22;62.74;97040.84;5076096;28;20003;-72
2022/07/07 03:24:21;;;;;;;;;;;;;;;13.22;62.75;97046.13;5076064;28;19957;-71
2022/07/07 03:26:46;;;;;;;;;;;;;;;13.22;62.96;97048.75;5076011;28;20399;-71
2022/07/07 03:29:12;;;;;;;;;;;;;;;13.15;63.04;97043.56;5075648;28;20040;-71
2022/07/07 03:31:38;;;;;;;;;;;;;;;13.11;63.15;97040.56;5075628;28;20379;-71
2022/07/07 03:34:04;;;;;;;;;;;;;;;13.08;63.31;97035.75;5075856;28;20039;-71
2022/07/07 03:36:30;;;;;;;;;;;;;;;13.05;63.26;97032.72;5075584;28;19978;-71
2022/07/07 03:38:56;;;;;;;;;;;;;;;13.04;63.56;97029.31;5075284;28;19970;-71
2022/07/07 03:41:22;;;;;;;;;;;;;;;13.05;63.52;97023.00;5075497;28;20032;-71
2022/07/07 03:43:47;;;;;;;;;;;;;;;13.04;63.61;97029.31;5075503;28;20414;-71
2022/07/07 03:46:13;;;;;;;;;;;;;;;13.00;65.99;97038.66;5075535;28;20377;-71
2022/07/07 03:48:39;;;;;;;;;;;;;;;12.91;64.01;97021.53;5075421;28;19961;-71
2022/07/07 03:51:06;;;;;;;;;;;;;;;12.90;64.84;97020.72;5075643;28;20387;-70
2022/07/07 03:53:32;;;;;;;;;;;;;;;12.89;64.77;97020.94;5075471;28;19953;-70
2022/07/07 03:55:58;;;;;;;;;;;;;;;12.86;64.63;97005.59;5075295;28;19978;-71
2022/07/07 03:58:24;;;;;;;;;;;;;;;12.87;64.75;97004.56;5075904;28;19970;-70
2022/07/07 04:00:50;;;;;;;;;;;;;;;12.86;64.63;97019.53;5075119;28;20403;-71
2022/07/07 04:03:16;;;;;;;;;;;;;;;12.91;65.20;97018.88;5075080;28;19979;-70
2022/07/07 04:05:42;;;;;;;;;;;;;;;12.92;64.94;97023.16;5075061;28;19962;-71
2022/07/07 04:08:08;;;;;;;;;;;;;;;12.92;64.56;97015.25;5074890;28;19964;-70
2022/07/07 04:10:34;;;;;;;;;;;;;;;12.94;64.32;97016.63;5074852;28;19996;-71
2022/07/07 04:13:00;;;;;;;;;;;;;;;12.96;64.92;97011.94;5074836;28;20003;-70
2022/07/07 04:15:26;;;;;;;;;;;;;;;12.99;64.68;97018.59;5074855;28;19955;-70
2022/07/07 04:17:52;;;;;;;;;;;;;;;12.99;64.85;97019.41;5075039;28;19955;-71
2022/07/07 04:20:18;;;;;;;;;;;;;;;13.02;64.40;97026.06;5074678;28;19951;-71
2022/07/07 04:22:44;;;;;;;;;;;;;;;13.02;64.47;97023.44;5074476;28;19978;-70
2022/07/07 04:25:11;;;;;;;;;;;;;;;13.02;64.29;97025.25;5074575;28;20401;-71
2022/07/07 04:27:36;;;;;;;;;;;;;;;13.02;64.72;97023.44;5074556;28;19956;-71
2022/07/07 04:30:03;;;;;;;;;;;;;;;13.03;65.01;97021.63;5074699;28;20402;-71
2022/07/07 04:32:29;;;;;;;;;;;;;;;13.03;64.64;97024.25;5074470;28;20442;-70
2022/07/07 04:34:55;;;;;;;;;;;;;;;13.00;64.61;97017.59;5074370;28;19980;-71
2022/07/07 04:37:21;;;;;;;;;;;;;;;13.02;64.45;97010.28;5074284;28;19967;-71
2022/07/07 04:39:46;;;;;;;;;;;;;;;13.02;64.60;97020.00;5074294;28;19951;-71
2022/07/07 04:42:13;;;;;;;;;;;;;;;13.03;64.93;97014.50;5074266;28;19958;-71
2022/07/07 04:44:39;;;;;;;;;;;;;;;13.04;65.12;97012.69;5074506;28;19959;-71
2022/07/07 04:47:04;;;;;;;;;;;;;;;13.05;64.95;97012.47;5074160;28;19954;-71
2022/07/07 04:49:30;;;;;;;;;;;;;;;13.07;65.03;97010.41;5073883;28;19964;-71
2022/07/07 04:51:57;;;;;;;;;;;;;;;13.05;64.81;97009.03;5073751;28;19953;-71
2022/07/07 04:54:22;;;;;;;;;;;;;;;13.06;65.21;97011.44;5074296;28;19952;-71
2022/07/07 04:56:48;;;;;;;;;;;;;;;13.12;64.70;97020.28;5074459;28;20028;-71
2022/07/07 04:59:14;;;;;;;;;;;;;;;13.24;64.57;97015.91;5074166;28;19956;-71
2022/07/07 05:01:40;;;;;;;;;;;;;;;13.45;65.19;97014.66;5074061;28;19968;-71
2022/07/07 05:04:06;;;;;;;;;;;;;;;13.66;64.80;97018.66;5073967;28;20014;-71
2022/07/07 05:06:32;;;;;;;;;;;;;;;13.88;63.07;97004.97;5073717;28;19955;-71
2022/07/07 05:08:58;;;;;;;;;;;;;;;14.09;63.51;97001.00;5074250;28;20335;-71
2022/07/07 05:11:24;;;;;;;;;;;;;;;14.27;62.18;96998.28;5073983;28;19965;-71
2022/07/07 05:13:50;;;;;;;;;;;;;;;14.23;62.64;96998.97;5073756;28;20009;-72
2022/07/07 05:16:15;;;;;;;;;;;;;;;14.12;62.30;96987.38;5073891;28;20339;-71
2022/07/07 05:18:41;;;;;;;;;;;;;;;14.17;62.58;96993.59;5073625;28;20040;-72
2022/07/07 05:21:07;;;;;;;;;;;;;;;14.13;62.30;96988.97;5073719;28;19960;-71
2022/07/07 05:23:33;;;;;;;;;;;;;;;14.13;62.81;96994.25;5073783;28;19968;-71
2022/07/07 05:25:59;;;;;;;;;;;;;;;14.15;62.75;96986.91;5074087;28;19960;-71
2022/07/07 05:28:25;;;;;;;;;;;;;;;14.44;62.67;96998.41;5073830;28;20038;-71
2022/07/07 05:30:51;;;;;;;;;;;;;;;14.71;61.50;96982.97;5073595;28;20056;-71
2022/07/07 05:33:17;;;;;;;;;;;;;;;15.00;61.49;96988.34;5073826;28;19959;-71
2022/07/07 05:35:43;;;;;;;;;;;;;;;15.32;60.63;96980.78;5073453;28;19964;-71
2022/07/07 05:38:09;;;;;;;;;;;;;;;15.53;59.48;96970.59;5074404;28;19954;-71
2022/07/07 05:40:35;;;;;;;;;;;;;;;15.74;58.62;96971.78;5073727;28;20005;-71
2022/07/07 05:43:01;;;;;;;;;;;;;;;15.87;58.38;96962.75;5073434;28;20000;-71
2022/07/07 05:45:27;;;;;;;;;;;;;;;15.91;57.84;96959.38;5072457;28;19963;-71
2022/07/07 05:47:52;;;;;;;;;;;;;;;16.01;57.77;96964.06;5073583;28;19971;-72
2022/07/07 05:50:18;;;;;;;;;;;;;;;16.22;57.99;96957.25;5073426;28;19951;-71
2022/07/07 05:52:44;;;;;;;;;;;;;;;16.53;56.80;96947.13;5073617;28;20020;-71
2022/07/07 05:55:11;;;;;;;;;;;;;;;16.64;55.99;96943.56;5073884;28;20327;-71
2022/07/07 05:57:37;;;;;;;;;;;;;;;16.72;55.31;96939.69;5073395;28;19980;-71
2022/07/07 06:00:04;;;;;;;;;;;;;;;16.83;55.78;96942.25;5073671;28;20320;-71
2022/07/07 06:02:29;;;;;;;;;;;;;;;16.84;55.16;96927.97;5075823;28;19962;-71
2022/07/07 06:04:55;;;;;;;;;;;;;;;16.90;54.49;96931.47;5077466;28;19959;-71
2022/07/07 06:07:21;;;;;;;;;;;;;;;17.08;55.54;96943.63;5077399;28;20024;-71
2022/07/07 06:09:47;;;;;;;;;;;;;;;17.30;55.43;96940.94;5077535;28;19967;-71
2022/07/07 06:12:31;;;;;;;;;;;;;;;17.54;55.28;96938.03;5079342;28;19959;-71
2022/07/07 06:14:57;;;;;;;;;;;;;;;17.79;54.62;96937.47;5077153;28;20297;-71
2022/07/07 06:17:22;;;;;;;;;;;;;;;18.11;55.02;96940.16;5077432;28;19976;-72
2022/07/07 06:19:48;;;;;;;;;;;;;;;18.29;52.26;96927.53;5077042;28;20418;-71
2022/07/07 06:22:14;;;;;;;;;;;;;;;18.43;53.55;96940.09;5077027;28;20058;-72
2022/07/07 06:24:41;;;;;;;;;;;;;;;18.29;52.76;96943.44;5077062;28;19966;-71
2022/07/07 06:27:07;;;;;;;;;;;;;;;17.98;52.54;96940.59;5076876;28;19956;-71
2022/07/07 06:29:33;;;;;;;;;;;;;;;17.85;53.14;96947.09;5077104;28;19985;-71
2022/07/07 06:31:59;;;;;;;;;;;;;;;17.95;53.50;96943.72;5077236;28;20040;-71
2022/07/07 06:34:25;;;;;;;;;;;;;;;17.87;54.10;96938.88;5076764;28;19958;-71
2022/07/07 06:36:50;;;;;;;;;;;;;;;17.94;53.50;96931.53;5076520;28;19984;-72
2022/07/07 06:39:16;;;;;;;;;;;;;;;17.96;54.52;96929.41;5076797;28;19965;-71
2022/07/07 06:41:42;;;;;;;;;;;;;;;18.18;54.57;96929.31;5076518;28;20012;-71
2022/07/07 06:44:11;;;;;;;;;;;;;;;18.40;53.85;96916.72;5076562;28;19952;-72
2022/07/07 06:46:39;;;;;;;;;;;;;;;18.62;54.12;96924.53;5076739;28;19959;-71
2022/07/07 06:49:05;;;;;;;;;;;;;;;18.90;53.01;96911.97;5076624;28;19959;-71
2022/07/07 06:51:31;;;;;;;;;;;;;;;19.11;52.20;96915.50;5076418;28;19954;-71
2022/07/07 06:53:58;;;;;;;;;;;;;;;19.40;54.03;96923.00;5076370;28;19956;-72
2022/07/07 06:56:24;;;;;;;;;;;;;;;19.69;51.77;96902.03;5076393;28;20564;-71
2022/07/07 06:59:10;;;;;;;;;;;;;;;19.76;50.85;96894.66;5068258;28;19970;-72
2022/07/07 07:01:36;;;;;;;;;;;;;;;19.91;50.08;96895.69;5076479;28;20005;-71
2022/07/07 07:04:02;;;;;;;;;;;;;;;19.94;49.70;96895.16;5075934;28;19951;-71
2022/07/07 07:06:28;;;;;;;;;;;;;;;20.06;50.12;96901.03;5076344;28;20000;-72
2022/07/07 07:08:58;;;;;;;;;;;;;;;20.29;48.34;96897.00;5076300;28;19963;-71
2022/07/07 07:11:25;;;;;;;;;;;;;;;20.34;50.39;96904.19;5076297;28;19962;-71
2022/07/07 07:13:51;;;;;;;;;;;;;;;20.20;49.38;96894.09;5075144;28;19968;-71
2022/07/07 07:16:49;;;;;;;;;;;;;;;20.01;51.33;96920.47;5072060;28;19969;-71
2022/07/07 07:19:15;;;;;;;;;;;;;;;20.01;51.30;96922.31;5076115;28;20440;-72
2022/07/07 07:21:41;;;;;;;;;;;;;;;19.93;51.15;96913.00;5076160;28;19965;-71
2022/07/07 07:24:06;;;;;;;;;;;;;;;19.78;50.47;96915.66;5075971;28;20053;-71
2022/07/07 07:26:32;;;;;;;;;;;;;;;19.49;51.14;96918.78;5075880;28;19958;-72
2022/07/07 07:28:58;;;;;;;;;;;;;;;19.31;51.87;96922.72;5075909;28;20081;-71
2022/07/07 07:31:24;;;;;;;;;;;;;;;19.19;51.93;96928.28;5074640;28;20519;-71
2022/07/07 07:33:50;;;;;;;;;;;;;;;19.18;52.25;96929.34;5075798;28;19999;-71
2022/07/07 07:36:16;;;;;;;;;;;;;;;19.27;53.39;96932.28;5075665;28;20054;-72
2022/07/07 07:38:43;;;;;;;;;;;;;;;19.55;53.02;96933.69;5075670;28;20359;-71
2022/07/07 07:41:10;;;;;;;;;;;;;;;19.81;52.63;96926.56;5075511;28;20987;-72
2022/07/07 07:43:37;;;;;;;;;;;;;;;19.95;52.06;96936.69;5075581;28;20340;-72
2022/07/07 07:46:03;;;;;;;;;;;;;;;19.91;49.79;96912.47;5075391;28;19962;-72
2022/07/07 07:48:29;;;;;;;;;;;;;;;19.84;51.08;96923.41;5075625;28;19955;-72
2022/07/07 07:50:55;;;;;;;;;;;;;;;19.79;50.20;96918.06;5075383;28;20007;-71
2022/07/07 07:53:21;;;;;;;;;;;;;;;19.83;51.06;96934.28;5075531;28;20012;-71
2022/07/07 07:55:46;;;;;;;;;;;;;;;20.02;52.07;96929.25;5075310;28;19960;-72
2022/07/07 07:58:12;;;;;;;;;;;;;;;20.30;51.12;96935.09;5075523;28;20032;-72
2022/07/07 08:00:38;;;;;;;;;;;;;;;20.34;48.76;96923.63;5075463;28;19964;-71
2022/07/07 08:03:04;;;;;;;;;;;;;;;20.38;48.86;96926.56;5075070;28;19969;-71
2022/07/07 08:05:30;;;;;;;;;;;;;;;20.36;48.33;96931.34;5073791;28;19949;-72
2022/07/07 08:07:56;;;;;;;;;;;;;;;20.24;49.34;96935.09;5075122;28;19953;-72
2022/07/07 08:10:23;;;;;;;;;;;;;;;20.09;50.05;96953.72;5075318;28;19959;-72
2022/07/07 08:12:49;;;;;;;;;;;;;;;19.92;49.97;96943.34;5074923;28;19973;-72
2022/07/07 08:15:15;;;;;;;;;;;;;;;19.75;50.84;96954.25;5074929;28;19960;-72
2022/07/07 08:17:42;;;;;;;;;;;;;;;19.57;50.92;96957.38;5074778;28;19980;-72
2022/07/07 08:20:08;;;;;;;;;;;;;;;19.41;50.75;96954.66;5074899;28;19959;-72
2022/07/07 08:22:34;;;;;;;;;;;;;;;19.34;52.69;96978.06;5074660;28;20320;-72
2022/07/07 08:25:00;;;;;;;;;;;;;;;19.25;52.78;96979.63;5074961;28;19959;-72
2022/07/07 08:27:26;;;;;;;;;;;;;;;19.17;52.49;96982.78;5074514;28;19956;-72
2022/07/07 08:29:52;;;;;;;;;;;;;;;19.08;52.28;96979.81;5074693;28;20002;-72
2022/07/07 08:32:18;;;;;;;;;;;;;;;18.94;52.69;96986.66;5074823;28;19962;-72
2022/07/07 08:34:44;;;;;;;;;;;;;;;18.82;52.45;96985.00;5074654;28;19957;-72
2022/07/07 08:37:11;;;;;;;;;;;;;;;18.71;53.02;96985.16;5074322;28;19974;-72
2022/07/07 08:39:37;;;;;;;;;;;;;;;18.62;53.57;96992.81;5074842;28;19962;-71
2022/07/07 08:42:03;;;;;;;;;;;;;;;18.55;53.55;96993.03;5074358;28;20328;-72
2022/07/07 08:44:29;;;;;;;;;;;;;;;18.48;53.71;96999.63;5074454;28;19956;-72
2022/07/07 08:46:55;;;;;;;;;;;;;;;18.46;54.19;96998.03;5074258;28;20328;-71
2022/07/07 08:49:21;;;;;;;;;;;;;;;18.49;53.95;96990.59;5074230;28;19964;-72
2022/07/07 08:51:46;;;;;;;;;;;;;;;18.48;54.82;96997.78;5074363;28;20354;-72
2022/07/07 08:54:13;;;;;;;;;;;;;;;18.50;54.58;97000.16;5074069;28;20383;-72
2022/07/07 08:56:40;;;;;;;;;;;;;;;18.55;54.44;96981.63;5074410;28;19965;-72
2022/07/07 08:59:07;;;;;;;;;;;;;;;18.63;54.51;96989.91;5073904;28;19957;-71
2022/07/07 09:01:34;;;;;;;;;;;;;;;18.77;54.68;96984.13;5074045;28;20328;-72
2022/07/07 09:04:00;;;;;;;;;;;;;;;18.84;53.85;96987.41;5074030;28;19963;-71
2022/07/07 09:06:26;;;;;;;;;;;;;;;18.86;54.05;96994.06;5073906;28;19957;-71
2022/07/07 09:08:52;;;;;;;;;;;;;;;18.93;53.79;96995.69;5073946;28;19961;-72
2022/07/07 09:11:25;;;;;;;;;;;;;;;19.07;53.96;96988.84;5073882;28;19949;-72
2022/07/07 09:13:51;;;;;;;;;;;;;;;19.17;54.04;96993.41;5073751;28;19961;-72
2022/07/07 09:16:17;;;;;;;;;;;;;;;19.24;53.19;96980.69;5074019;28;19961;-72
2022/07/07 09:18:44;;;;;;;;;;;;;;;19.30;53.41;96977.00;5073787;28;19971;-72
2022/07/07 09:21:28;;;;;;;;;;;;;;;19.37;53.63;96966.91;5073912;28;20424;-72
2022/07/07 09:23:55;;;;;;;;;;;;;;;19.39;53.79;96982.59;5073731;28;19953;-72
2022/07/07 09:26:35;;;;;;;;;;;;;;;19.39;53.92;96980.72;5073882;28;19950;-72
2022/07/07 09:29:00;;;;;;;;;;;;;;;19.33;54.06;96975.66;5073602;28;19978;-72
2022/07/07 09:31:46;;;;;;;;;;;;;;;19.32;54.54;96966.88;5073954;28;19965;-71
2022/07/07 09:34:12;;;;;;;;;;;;;;;19.33;54.64;96976.44;5073485;28;19951;-72
2022/07/07 09:39:23;;;;;;;;;;;;;;;19.19;54.32;96978.81;5058750;28;19964;-72
2022/07/07 09:41:49;;;;;;;;;;;;;;;19.10;54.89;96987.53;5073798;28;19965;-72
2022/07/07 09:44:19;;;;;;;;;;;;;;;19.02;55.35;96994.97;5073500;28;19988;-71
2022/07/07 09:46:45;;;;;;;;;;;;;;;18.90;55.82;97004.16;5073632;28;19957;-72
2022/07/07 09:49:12;;;;;;;;;;;;;;;18.75;55.86;96992.38;5073645;28;19966;-71
2022/07/07 09:51:38;;;;;;;;;;;;;;;18.66;56.69;97001.88;5073512;28;19963;-71
2022/07/07 09:54:08;;;;;;;;;;;;;;;18.61;56.13;97001.84;5073454;28;20011;-72
2022/07/07 09:56:35;;;;;;;;;;;;;;;18.58;56.97;97000.50;5073595;28;20514;-71
2022/07/07 09:59:02;;;;;;;;;;;;;;;18.59;56.98;96996.78;5073480;28;19964;-71
2022/07/07 10:01:29;;;;;;;;;;;;;;;18.62;56.30;96987.50;5073581;28;19959;-71
2022/07/07 10:03:56;;;;;;;;;;;;;;;18.62;56.40;96984.84;5073402;28;19958;-71
2022/07/07 10:06:23;;;;;;;;;;;;;;;18.65;56.88;97000.28;5073380;28;20405;-71
2022/07/07 10:08:54;;;;;;;;;;;;;;;18.72;56.57;96981.47;5072012;28;19956;-72
2022/07/07 10:11:21;;;;;;;;;;;;;;;18.80;56.08;96983.66;5073596;28;20335;-71
2022/07/07 10:13:48;;;;;;;;;;;;;;;18.90;56.58;96983.72;5073227;28;19954;-71
2022/07/07 10:16:14;;;;;;;;;;;;;;;18.96;56.26;96984.53;5073247;28;19957;-72
2022/07/07 10:18:42;;;;;;;;;;;;;;;19.00;55.85;96986.44;5073554;28;20430;-72
2022/07/07 10:21:08;;;;;;;;;;;;;;;19.04;56.01;96981.38;5073254;28;20332;-72
2022/07/07 10:23:34;;;;;;;;;;;;;;;19.11;55.56;96981.16;5073543;28;19960;-72
2022/07/07 10:26:01;;;;;;;;;;;;;;;19.22;55.92;96991.56;5073300;28;19969;-72
2022/07/07 10:28:56;;;;;;;;;;;;;;;19.33;54.42;96986.31;5073314;28;19980;-71
2022/07/07 10:31:23;;;;;;;;;;;;;;;19.47;54.76;96987.41;5062924;28;19964;-72
2022/07/07 10:34:00;;;;;;;;;;;;;;;19.64;54.77;96988.00;5072613;28;19961;-72
2022/07/07 10:36:26;;;;;;;;;;;;;;;19.77;53.65;96981.38;5073060;28;19956;-71
2022/07/07 10:38:52;;;;;;;;;;;;;;;19.81;53.03;96985.13;5073149;28;20342;-71
2022/07/07 10:41:23;;;;;;;;;;;;;;;19.81;52.75;96974.47;5072880;28;19965;-71
2022/07/07 10:43:57;;;;;;;;;;;;;;;19.76;54.21;96989.63;5072929;28;19955;-72
2022/07/07 10:46:23;;;;;;;;;;;;;;;19.70;53.73;96988.84;5073538;28;19953;-72
2022/07/07 10:48:52;;;;;;;;;;;;;;;19.67;54.52;96990.13;5074179;28;20006;-72
2022/07/07 10:51:21;;;;;;;;;;;;;;;19.71;54.27;96987.75;5076545;28;19961;-72
2022/07/07 10:54:01;;;;;;;;;;;;;;;19.78;53.72;96988.31;5076734;28;19962;-72
2022/07/07 10:56:27;;;;;;;;;;;;;;;19.79;54.16;96989.91;5076344;28;19954;-72
2022/07/07 10:58:57;;;;;;;;;;;;;;;19.79;53.34;96979.25;5076658;28;19978;-72
2022/07/07 11:01:24;;;;;;;;;;;;;;;19.76;53.08;96984.31;5076879;28;20328;-72
2022/07/07 11:03:51;;;;;;;;;;;;;;;19.74;52.78;96986.44;5076216;28;19958;-71
2022/07/07 11:06:17;;;;;;;;;;;;;;;19.73;53.82;96990.16;5076365;28;19966;-72
2022/07/07 11:08:53;;;;;;;;;;;;;;;19.68;53.28;96980.28;5074905;28;19960;-72
2022/07/07 11:11:19;;;;;;;;;;;;;;;19.67;53.28;96995.47;5076519;28;19971;-72
2022/07/07 11:13:45;;;;;;;;;;;;;;;19.66;54.27;96991.19;5076355;28;19960;-71
2022/07/07 11:16:12;;;;;;;;;;;;;;;19.62;53.00;96982.13;5074832;28;19951;-72
2022/07/07 11:18:38;;;;;;;;;;;;;;;19.58;53.38;96989.03;5076092;28;20445;-71
2022/07/07 11:21:05;;;;;;;;;;;;;;;19.56;53.96;96988.50;5074850;28;20037;-72
2022/07/07 11:23:47;;;;;;;;;;;;;;;19.57;55.31;96999.94;5076024;28;19966;-72
2022/07/07 11:26:17;;;;;;;;;;;;;;;19.57;54.31;96994.59;5075876;28;19969;-72
2022/07/07 11:28:43;;;;;;;;;;;;;;;19.56;55.01;97001.78;5075527;28;19989;-72
2022/07/07 11:31:09;;;;;;;;;;;;;;;19.52;54.48;96999.94;5076242;28;20321;-72
2022/07/07 11:33:36;;;;;;;;;;;;;;;19.51;54.26;96995.66;5075671;28;19965;-72
2022/07/07 11:36:16;;;;;;;;;;;;;;;19.55;54.60;96994.06;5075732;28;19971;-72
2022/07/07 11:38:42;;;;;;;;;;;;;;;19.60;54.69;96996.75;5075994;28;19980;-72
2022/07/07 11:41:08;;;;;;;;;;;;;;;19.64;54.63;96995.19;5075705;28;19964;-72
2022/07/07 11:43:34;;;;;;;;;;;;;;;19.66;53.83;96996.50;5075589;28;19958;-72
2022/07/07 11:46:00;;;;;;;;;;;;;;;19.66;53.69;96985.88;5075472;28;20317;-72
2022/07/07 11:48:33;;;;;;;;;;;;;;;19.65;54.35;96996.75;5074228;28;19957;-72
2022/07/07 11:50:59;;;;;;;;;;;;;;;19.66;54.63;97001.81;5075501;28;19949;-72
2022/07/07 11:53:25;;;;;;;;;;;;;;;19.64;54.25;96995.19;5075668;28;19962;-71
2022/07/07 11:56:26;;;;;;;;;;;;;;;19.57;54.42;96994.59;5073786;28;19963;-72
2022/07/07 11:58:56;;;;;;;;;;;;;;;19.49;55.26;97001.25;5075619;28;20564;-72
2022/07/07 12:01:22;;;;;;;;;;;;;;;19.41;54.41;97004.41;5075381;28;19981;-72
2022/07/07 12:03:48;;;;;;;;;;;;;;;19.35;55.24;97013.44;5075329;28;19959;-71
2022/07/07 12:06:14;;;;;;;;;;;;;;;19.32;54.84;97012.09;5075028;28;20356;-72
2022/07/07 12:08:40;;;;;;;;;;;;;;;19.35;54.76;97014.22;5075044;28;19962;-72
2022/07/07 12:11:06;;;;;;;;;;;;;;;19.46;55.29;97009.75;5075173;28;19986;-72
2022/07/07 12:13:32;;;;;;;;;;;;;;;19.72;55.15;97012.50;5075015;28;19966;-72
2022/07/07 12:16:02;;;;;;;;;;;;;;;19.96;53.98;97004.84;5075071;28;19950;-71
2022/07/07 12:18:32;;;;;;;;;;;;;;;20.13;53.33;96994.75;5074782;28;19999;-71
2022/07/07 12:21:03;;;;;;;;;;;;;;;20.24;52.45;96992.88;5074860;28;19961;-72
2022/07/07 12:23:29;;;;;;;;;;;;;;;20.32;52.79;97004.88;5075058;28;20027;-71
2022/07/07 12:26:10;;;;;;;;;;;;;;;20.35;52.38;96999.81;5074859;28;19965;-72
2022/07/07 12:28:39;;;;;;;;;;;;;;;20.45;52.37;96993.66;5074301;28;19989;-71
2022/07/07 12:31:05;;;;;;;;;;;;;;;20.54;52.66;96997.41;5075214;28;19963;-72
2022/07/07 12:33:33;;;;;;;;;;;;;;;20.62;52.20;96993.41;5074590;28;19973;-72
2022/07/07 12:36:06;;;;;;;;;;;;;;;20.66;52.46;97005.94;5074672;28;19956;-71
2022/07/07 12:38:36;;;;;;;;;;;;;;;20.64;50.70;96985.94;5074376;28;19966;-72
2022/07/07 12:41:02;;;;;;;;;;;;;;;20.58;50.96;97003.81;5074564;28;20303;-72
2022/07/07 12:43:32;;;;;;;;;;;;;;;20.45;51.17;96997.16;5074452;28;19963;-71
2022/07/07 12:46:09;;;;;;;;;;;;;;;20.39;52.02;96997.41;5074361;28;20320;-71
2022/07/07 12:48:41;;;;;;;;;;;;;;;20.28;52.17;97005.41;5074386;28;20025;-71
2022/07/07 12:51:07;;;;;;;;;;;;;;;20.17;53.33;97017.13;5073987;28;19955;-71